Time;durP1;ratioP1;P1;durP2;ratioP2;P2;SDS_P1;SDS_P2;PMS_P1;PMS_P2;Temp;Humidity;BMP_temperature;BMP_pressure;BME280_temperature;BME280_humidity;BME280_pressure;Samples;Min_cycle;Max_cycle;Signal;HPM_P1;HPM_P2
2022/10/21 00:00:50;;;;;;;2.90;2.70;;;;;;;;;;5141637;27;20640;-66
2022/10/21 00:03:18;;;;;;;2.97;2.78;;;;;;;;;;5140988;27;20262;-66
2022/10/21 00:05:46;;;;;;;2.80;2.60;;;;;;;;;;5141485;27;20202;-67
2022/10/21 00:08:14;;;;;;;2.67;2.47;;;;;;;;;;5141297;27;20213;-67
2022/10/21 00:10:42;;;;;;;2.80;2.60;;;;;;;;;;5141286;27;20640;-67
2022/10/21 00:13:11;;;;;;;2.85;2.65;;;;;;;;;;5140282;27;20198;-66
2022/10/21 00:15:39;;;;;;;3.08;2.88;;;;;;;;;;5140778;27;20669;-67
2022/10/21 00:18:07;;;;;;;3.22;3.03;;;;;;;;;;5140733;27;20241;-67
2022/10/21 00:20:35;;;;;;;2.88;2.67;;;;;;;;;;5141044;27;20206;-67
2022/10/21 00:23:02;;;;;;;2.67;2.47;;;;;;;;;;5138837;27;20194;-67
2022/10/21 00:25:30;;;;;;;2.80;2.60;;;;;;;;;;5140827;27;20199;-66
2022/10/21 00:27:58;;;;;;;2.53;2.35;;;;;;;;;;5140807;27;20234;-66
2022/10/21 00:30:27;;;;;;;2.92;2.72;;;;;;;;;;5141098;27;20255;-66
2022/10/21 00:32:55;;;;;;;2.58;2.38;;;;;;;;;;5140028;27;20247;-67
2022/10/21 00:35:23;;;;;;;2.97;2.78;;;;;;;;;;5140719;27;20287;-66
2022/10/21 00:37:51;;;;;;;2.63;2.42;;;;;;;;;;5141021;27;20202;-67
2022/10/21 00:40:18;;;;;;;2.63;2.42;;;;;;;;;;5140391;27;20202;-67
2022/10/21 00:42:47;;;;;;;2.90;2.70;;;;;;;;;;5139698;27;20206;-66
2022/10/21 00:45:19;;;;;;;2.75;2.55;;;;;;;;;;5140417;27;20198;-67
2022/10/21 00:47:50;;;;;;;2.75;2.55;;;;;;;;;;5140665;27;20304;-67
2022/10/21 00:50:21;;;;;;;2.83;2.63;;;;;;;;;;5141222;27;20305;-67
2022/10/21 00:52:49;;;;;;;2.90;2.70;;;;;;;;;;5140267;27;20279;-67
2022/10/21 00:55:17;;;;;;;2.67;2.47;;;;;;;;;;5140771;27;20262;-67
2022/10/21 00:57:45;;;;;;;2.60;2.40;;;;;;;;;;5141126;27;20540;-66
2022/10/21 01:00:13;;;;;;;2.70;2.50;;;;;;;;;;5140327;27;20206;-66
2022/10/21 01:02:41;;;;;;;2.72;2.53;;;;;;;;;;5139897;27;20263;-67
2022/10/21 01:05:11;;;;;;;2.72;2.47;;;;;;;;;;5140391;27;20244;-67
2022/10/21 01:07:39;;;;;;;2.80;2.60;;;;;;;;;;5140527;27;20262;-67
2022/10/21 01:10:07;;;;;;;2.90;2.70;;;;;;;;;;5140223;27;20202;-66
2022/10/21 01:12:40;;;;;;;2.55;2.35;;;;;;;;;;5139998;27;20277;-66
2022/10/21 01:15:11;;;;;;;3.17;2.92;;;;;;;;;;5140176;27;20202;-66
2022/10/21 01:17:43;;;;;;;2.70;2.50;;;;;;;;;;5140338;27;20267;-66
2022/10/21 01:20:28;;;;;;;2.72;2.53;;;;;;;;;;5140341;27;20734;-67
2022/10/21 01:23:08;;;;;;;2.72;2.53;;;;;;;;;;5138810;27;20234;-67
2022/10/21 01:25:47;;;;;;;2.80;2.60;;;;;;;;;;5140064;27;20197;-66
2022/10/21 01:28:19;;;;;;;3.03;2.72;;;;;;;;;;5139177;27;20670;-67
2022/10/21 01:30:54;;;;;;;3.10;2.90;;;;;;;;;;5140363;27;20210;-67
2022/10/21 01:33:37;;;;;;;3.00;2.80;;;;;;;;;;5139949;27;20208;-67
2022/10/21 01:36:10;;;;;;;3.10;2.90;;;;;;;;;;5139133;27;20230;-67
2022/10/21 01:38:43;;;;;;;2.70;2.50;;;;;;;;;;5138220;27;20231;-67
2022/10/21 01:41:13;;;;;;;2.70;2.50;;;;;;;;;;5139189;27;20292;-67
2022/10/21 01:43:45;;;;;;;2.72;2.53;;;;;;;;;;5138570;27;20210;-67
2022/10/21 01:46:16;;;;;;;2.75;2.55;;;;;;;;;;5139236;27;20565;-66
2022/10/21 01:48:46;;;;;;;2.67;2.47;;;;;;;;;;5138242;27;20209;-67
2022/10/21 01:51:14;;;;;;;2.53;2.33;;;;;;;;;;5138373;27;20468;-67
2022/10/21 01:53:49;;;;;;;2.55;2.35;;;;;;;;;;5139540;27;20585;-67
2022/10/21 01:56:18;;;;;;;2.88;2.67;;;;;;;;;;5139486;27;20624;-66
2022/10/21 01:58:48;;;;;;;2.70;2.50;;;;;;;;;;5136612;27;20476;-67
2022/10/21 02:01:18;;;;;;;2.78;2.58;;;;;;;;;;5139114;27;20246;-66
2022/10/21 02:03:48;;;;;;;3.00;2.80;;;;;;;;;;5139223;27;20202;-67
2022/10/21 02:06:17;;;;;;;2.88;2.67;;;;;;;;;;5139001;27;20198;-67
2022/10/21 02:08:45;;;;;;;2.70;2.50;;;;;;;;;;5138464;27;20202;-67
2022/10/21 02:11:13;;;;;;;2.83;2.63;;;;;;;;;;5138873;27;20202;-66
2022/10/21 02:13:43;;;;;;;3.10;2.90;;;;;;;;;;5139065;27;20202;-66
2022/10/21 02:16:13;;;;;;;2.80;2.60;;;;;;;;;;5139152;27;20226;-66
2022/10/21 02:18:43;;;;;;;2.80;2.60;;;;;;;;;;5138481;27;20226;-66
2022/10/21 02:21:13;;;;;;;2.70;2.50;;;;;;;;;;5138655;27;20209;-66
2022/10/21 02:23:43;;;;;;;2.75;2.55;;;;;;;;;;5138935;27;20204;-66
2022/10/21 02:26:11;;;;;;;2.97;2.78;;;;;;;;;;5139232;27;20199;-66
2022/10/21 02:28:39;;;;;;;3.10;2.90;;;;;;;;;;5137804;27;20242;-66
2022/10/21 02:31:17;;;;;;;3.00;2.80;;;;;;;;;;5138650;27;20573;-67
2022/10/21 02:33:51;;;;;;;3.00;2.80;;;;;;;;;;5138592;27;20241;-67
2022/10/21 02:36:24;;;;;;;3.13;2.90;;;;;;;;;;5138564;27;20315;-67
2022/10/21 02:38:54;;;;;;;2.83;2.60;;;;;;;;;;5138034;28;20225;-67
2022/10/21 02:41:24;;;;;;;3.20;3.00;;;;;;;;;;5138650;28;20462;-67
2022/10/21 02:43:54;;;;;;;2.83;2.63;;;;;;;;;;5138624;28;20202;-67
2022/10/21 02:46:22;;;;;;;3.03;2.83;;;;;;;;;;5139135;28;20573;-67
2022/10/21 02:48:51;;;;;;;2.90;2.70;;;;;;;;;;5138384;27;20198;-66
2022/10/21 02:51:19;;;;;;;2.90;2.70;;;;;;;;;;5138639;27;20202;-66
2022/10/21 02:53:47;;;;;;;2.80;2.60;;;;;;;;;;5138735;27;20194;-67
2022/10/21 02:56:15;;;;;;;2.70;2.50;;;;;;;;;;5140630;27;20532;-66
2022/10/21 02:58:43;;;;;;;2.90;2.70;;;;;;;;;;5141696;27;20198;-66
2022/10/21 03:01:11;;;;;;;3.10;2.90;;;;;;;;;;5142400;27;20202;-67
2022/10/21 03:03:39;;;;;;;2.65;2.45;;;;;;;;;;5142264;27;20208;-67
2022/10/21 03:06:08;;;;;;;3.00;2.80;;;;;;;;;;5142739;27;20229;-66
2022/10/21 03:08:36;;;;;;;2.88;2.67;;;;;;;;;;5142789;27;20586;-66
2022/10/21 03:11:04;;;;;;;3.15;2.95;;;;;;;;;;5142313;27;20266;-66
2022/10/21 03:13:33;;;;;;;2.63;2.42;;;;;;;;;;5142876;27;20213;-66
2022/10/21 03:16:00;;;;;;;2.75;2.55;;;;;;;;;;5141978;27;20291;-66
2022/10/21 03:18:28;;;;;;;3.00;2.80;;;;;;;;;;5142271;27;20483;-66
2022/10/21 03:20:56;;;;;;;3.05;2.83;;;;;;;;;;5142514;27;20241;-66
2022/10/21 03:23:26;;;;;;;3.03;2.80;;;;;;;;;;5142370;27;20201;-66
2022/10/21 03:25:54;;;;;;;2.97;2.78;;;;;;;;;;5141581;27;20194;-66
2022/10/21 03:28:22;;;;;;;3.00;2.80;;;;;;;;;;5141870;27;20236;-66
2022/10/21 03:30:50;;;;;;;3.15;2.95;;;;;;;;;;5141652;27;20496;-66
2022/10/21 03:33:17;;;;;;;2.92;2.72;;;;;;;;;;5141729;27;20209;-66
2022/10/21 03:35:45;;;;;;;3.10;2.65;;;;;;;;;;5141396;27;20252;-66
2022/10/21 03:38:13;;;;;;;3.10;2.90;;;;;;;;;;5141754;27;20199;-66
2022/10/21 03:40:42;;;;;;;2.83;2.63;;;;;;;;;;5141528;27;20551;-66
2022/10/21 03:43:10;;;;;;;3.20;3.00;;;;;;;;;;5141162;27;20294;-67
2022/10/21 03:45:38;;;;;;;2.80;2.60;;;;;;;;;;5141227;27;20209;-66
2022/10/21 03:48:05;;;;;;;2.90;2.70;;;;;;;;;;5141043;27;20198;-67
2022/10/21 03:50:33;;;;;;;2.85;2.65;;;;;;;;;;5141214;27;20254;-67
2022/10/21 03:53:01;;;;;;;2.85;2.65;;;;;;;;;;5142006;27;20210;-66
2022/10/21 03:55:29;;;;;;;2.90;2.70;;;;;;;;;;5140781;27;20641;-67
2022/10/21 03:57:58;;;;;;;2.72;2.50;;;;;;;;;;5140459;27;20226;-66
2022/10/21 04:00:26;;;;;;;2.63;2.42;;;;;;;;;;5141098;27;20202;-66
2022/10/21 04:02:54;;;;;;;2.80;2.60;;;;;;;;;;5140789;27;20458;-67
2022/10/21 04:05:21;;;;;;;2.67;2.50;;;;;;;;;;5141442;27;20643;-66
2022/10/21 04:07:49;;;;;;;2.92;2.72;;;;;;;;;;5139298;27;20195;-66
2022/10/21 04:10:16;;;;;;;2.50;2.30;;;;;;;;;;5140775;27;20673;-66
2022/10/21 04:12:43;;;;;;;2.70;2.50;;;;;;;;;;5141426;27;20241;-67
2022/10/21 04:15:13;;;;;;;3.13;2.92;;;;;;;;;;5140931;27;20618;-66
2022/10/21 04:17:41;;;;;;;2.83;2.63;;;;;;;;;;5139799;27;20233;-66
2022/10/21 04:20:09;;;;;;;2.85;2.65;;;;;;;;;;5140981;27;20293;-66
2022/10/21 04:22:36;;;;;;;2.97;2.78;;;;;;;;;;5140305;27;20269;-67
2022/10/21 04:25:04;;;;;;;3.17;2.92;;;;;;;;;;5140368;27;20263;-66
2022/10/21 04:27:32;;;;;;;2.60;2.40;;;;;;;;;;5139965;27;20257;-66
2022/10/21 04:29:59;;;;;;;2.80;2.60;;;;;;;;;;5140078;27;20559;-66
2022/10/21 04:32:28;;;;;;;2.90;2.70;;;;;;;;;;5140050;27;20276;-67
2022/10/21 04:34:56;;;;;;;2.33;2.22;;;;;;;;;;5140071;27;20351;-66
2022/10/21 04:37:23;;;;;;;2.80;2.60;;;;;;;;;;5139125;27;20257;-67
2022/10/21 04:39:51;;;;;;;2.97;2.78;;;;;;;;;;5139675;27;20245;-66
2022/10/21 04:42:18;;;;;;;3.00;2.80;;;;;;;;;;5139657;27;20230;-66
2022/10/21 04:44:46;;;;;;;3.08;2.88;;;;;;;;;;5139658;27;20230;-66
2022/10/21 04:47:13;;;;;;;3.00;2.80;;;;;;;;;;5139794;27;20277;-67
2022/10/21 04:49:42;;;;;;;3.10;2.90;;;;;;;;;;5139834;27;20324;-66
2022/10/21 04:52:10;;;;;;;3.20;3.00;;;;;;;;;;5139716;27;20480;-67
2022/10/21 04:54:37;;;;;;;2.90;2.70;;;;;;;;;;5138611;27;20241;-68
2022/10/21 04:57:04;;;;;;;3.05;2.75;;;;;;;;;;5139618;27;20272;-67
2022/10/21 04:59:32;;;;;;;3.00;2.80;;;;;;;;;;5138845;27;20237;-67
2022/10/21 05:02:00;;;;;;;2.85;2.65;;;;;;;;;;5138855;27;20202;-66
2022/10/21 05:04:27;;;;;;;2.80;2.60;;;;;;;;;;5137326;27;20206;-67
2022/10/21 05:06:56;;;;;;;2.55;2.40;;;;;;;;;;5138881;27;20202;-67
2022/10/21 05:09:23;;;;;;;2.85;2.65;;;;;;;;;;5139098;27;20309;-67
2022/10/21 05:11:51;;;;;;;2.83;2.63;;;;;;;;;;5139434;27;20202;-66
2022/10/21 05:14:19;;;;;;;3.10;2.90;;;;;;;;;;5138272;27;20661;-66
2022/10/21 05:16:46;;;;;;;2.85;2.65;;;;;;;;;;5138933;27;20308;-66
2022/10/21 05:19:14;;;;;;;2.70;2.50;;;;;;;;;;5138771;27;20241;-66
2022/10/21 05:21:41;;;;;;;2.88;2.67;;;;;;;;;;5139386;27;20471;-66
2022/10/21 05:24:10;;;;;;;2.75;2.55;;;;;;;;;;5138599;27;20233;-67
2022/10/21 05:26:37;;;;;;;2.78;2.58;;;;;;;;;;5139359;27;20241;-67
2022/10/21 05:29:05;;;;;;;2.70;2.50;;;;;;;;;;5139070;27;20238;-67
2022/10/21 05:31:33;;;;;;;2.80;2.60;;;;;;;;;;5138034;27;20202;-67
2022/10/21 05:34:00;;;;;;;2.80;2.60;;;;;;;;;;5137909;27;20194;-66
2022/10/21 05:36:29;;;;;;;2.80;2.60;;;;;;;;;;5138560;27;20274;-66
2022/10/21 05:38:57;;;;;;;2.80;2.60;;;;;;;;;;5138128;27;20228;-66
2022/10/21 05:41:26;;;;;;;2.90;2.70;;;;;;;;;;5138221;27;20262;-66
2022/10/21 05:43:54;;;;;;;2.78;2.58;;;;;;;;;;5137708;27;20277;-66
2022/10/21 05:46:22;;;;;;;2.80;2.60;;;;;;;;;;5138102;27;20210;-67
2022/10/21 05:48:50;;;;;;;2.80;2.60;;;;;;;;;;5138269;27;20233;-67
2022/10/21 05:51:24;;;;;;;2.80;2.60;;;;;;;;;;5138502;27;20298;-66
2022/10/21 05:53:51;;;;;;;2.78;2.50;;;;;;;;;;5137717;27;20202;-66
2022/10/21 05:56:19;;;;;;;2.72;2.53;;;;;;;;;;5137982;27;20202;-68
2022/10/21 05:58:48;;;;;;;2.50;2.30;;;;;;;;;;5137359;27;20222;-68
2022/10/21 06:01:15;;;;;;;3.00;2.80;;;;;;;;;;5137325;27;20855;-65
2022/10/21 06:03:43;;;;;;;2.92;2.63;;;;;;;;;;5137394;27;20274;-68
2022/10/21 06:06:10;;;;;;;2.92;2.72;;;;;;;;;;5137345;27;20245;-67
2022/10/21 06:08:39;;;;;;;2.60;2.40;;;;;;;;;;5137850;27;20229;-66
2022/10/21 06:11:07;;;;;;;2.63;2.50;;;;;;;;;;5137302;27;20208;-66
2022/10/21 06:13:35;;;;;;;3.05;2.40;;;;;;;;;;5138055;27;20310;-66
2022/10/21 06:16:04;;;;;;;2.30;2.10;;;;;;;;;;5137964;27;20236;-66
2022/10/21 06:18:32;;;;;;;2.75;2.50;;;;;;;;;;5137736;27;20282;-66
2022/10/21 06:20:59;;;;;;;2.80;2.60;;;;;;;;;;5137269;27;20237;-66
2022/10/21 06:23:27;;;;;;;2.67;2.47;;;;;;;;;;5136128;27;20286;-67
2022/10/21 06:25:55;;;;;;;2.47;2.20;;;;;;;;;;5137190;27;20306;-67
2022/10/21 06:28:23;;;;;;;2.78;2.58;;;;;;;;;;5115449;27;20232;-66
2022/10/21 06:30:52;;;;;;;2.88;2.50;;;;;;;;;;5096235;28;20294;-66
2022/10/21 06:33:21;;;;;;;2.90;2.70;;;;;;;;;;5114257;28;20191;-66
2022/10/21 06:35:49;;;;;;;3.33;3.00;;;;;;;;;;5116832;28;20297;-67
2022/10/21 06:38:17;;;;;;;3.22;2.90;;;;;;;;;;5116489;28;20270;-66
2022/10/21 06:40:46;;;;;;;2.90;2.70;;;;;;;;;;5115831;28;20214;-66
2022/10/21 06:43:14;;;;;;;3.30;2.60;;;;;;;;;;5114911;28;20633;-67
2022/10/21 06:45:41;;;;;;;2.60;2.40;;;;;;;;;;5116076;28;20230;-66
2022/10/21 06:48:08;;;;;;;3.00;2.80;;;;;;;;;;5115858;28;20657;-66
2022/10/21 06:50:39;;;;;;;3.17;2.80;;;;;;;;;;5115661;28;20195;-66
2022/10/21 06:53:06;;;;;;;3.22;2.80;;;;;;;;;;5114955;28;20205;-66
2022/10/21 06:55:34;;;;;;;3.20;2.97;;;;;;;;;;5116905;28;20234;-66
2022/10/21 06:58:01;;;;;;;3.00;2.80;;;;;;;;;;5115824;28;20262;-67
2022/10/21 07:00:29;;;;;;;3.33;3.03;;;;;;;;;;5116213;28;20234;-66
2022/10/21 07:02:57;;;;;;;3.03;2.72;;;;;;;;;;5115694;28;20207;-67
2022/10/21 07:05:24;;;;;;;3.28;3.05;;;;;;;;;;5115780;28;20202;-66
2022/10/21 07:07:53;;;;;;;3.53;3.10;;;;;;;;;;5115956;28;20234;-67
2022/10/21 07:10:21;;;;;;;3.05;2.85;;;;;;;;;;5114977;28;20290;-67
2022/10/21 07:12:48;;;;;;;3.40;3.10;;;;;;;;;;5116059;28;20202;-67
2022/10/21 07:15:16;;;;;;;3.40;3.10;;;;;;;;;;5115635;28;20306;-67
2022/10/21 07:17:43;;;;;;;3.13;2.80;;;;;;;;;;5114932;28;20325;-67
2022/10/21 07:20:11;;;;;;;3.67;3.00;;;;;;;;;;5115113;28;20200;-67
2022/10/21 07:22:38;;;;;;;3.63;2.92;;;;;;;;;;5115143;28;20280;-67
2022/10/21 07:25:08;;;;;;;3.28;2.97;;;;;;;;;;5115264;28;20264;-66
2022/10/21 07:27:35;;;;;;;3.30;3.00;;;;;;;;;;5115214;28;20304;-67
2022/10/21 07:30:03;;;;;;;3.53;3.22;;;;;;;;;;5116095;28;20494;-67
2022/10/21 07:32:30;;;;;;;3.10;2.80;;;;;;;;;;5115242;28;20540;-67
2022/10/21 07:34:58;;;;;;;3.38;3.00;;;;;;;;;;5115416;28;20710;-66
2022/10/21 07:37:25;;;;;;;3.45;3.15;;;;;;;;;;5115794;28;20288;-67
2022/10/21 07:39:54;;;;;;;3.35;3.05;;;;;;;;;;5115084;28;20272;-66
2022/10/21 07:42:24;;;;;;;3.25;3.05;;;;;;;;;;5116299;28;20203;-66
2022/10/21 07:44:58;;;;;;;3.50;3.20;;;;;;;;;;5119655;28;20214;-66
2022/10/21 07:47:25;;;;;;;3.20;2.97;;;;;;;;;;5119585;28;20199;-67
2022/10/21 07:49:53;;;;;;;3.53;3.22;;;;;;;;;;5118587;28;20203;-66
2022/10/21 07:52:20;;;;;;;3.83;3.30;;;;;;;;;;5119348;28;20219;-66
2022/10/21 07:54:47;;;;;;;3.25;3.00;;;;;;;;;;5119350;28;20301;-66
2022/10/21 07:57:15;;;;;;;3.42;3.13;;;;;;;;;;5119304;28;20683;-66
2022/10/21 07:59:44;;;;;;;3.50;3.20;;;;;;;;;;5118425;28;20306;-67
2022/10/21 08:02:14;;;;;;;3.40;3.10;;;;;;;;;;5117743;28;20197;-66
2022/10/21 08:04:41;;;;;;;3.60;3.20;;;;;;;;;;5118569;28;20298;-66
2022/10/21 08:07:09;;;;;;;3.60;3.30;;;;;;;;;;5118446;28;20572;-66
2022/10/21 08:09:36;;;;;;;3.38;3.08;;;;;;;;;;5118041;28;20282;-66
2022/10/21 08:12:04;;;;;;;3.53;3.22;;;;;;;;;;5117933;28;20221;-66
2022/10/21 08:14:32;;;;;;;3.58;3.20;;;;;;;;;;5118538;28;20268;-66
2022/10/21 08:17:01;;;;;;;3.65;3.35;;;;;;;;;;5118033;28;20203;-66
2022/10/21 08:19:29;;;;;;;3.42;3.13;;;;;;;;;;5118631;28;20329;-66
2022/10/21 08:21:57;;;;;;;3.70;3.38;;;;;;;;;;5117641;28;20210;-66
2022/10/21 08:24:26;;;;;;;3.78;3.47;;;;;;;;;;5117951;28;20234;-67
2022/10/21 08:26:54;;;;;;;3.30;3.05;;;;;;;;;;5117447;28;20207;-67
2022/10/21 08:29:21;;;;;;;3.63;3.33;;;;;;;;;;5118481;28;20253;-67
2022/10/21 08:31:49;;;;;;;4.88;3.63;;;;;;;;;;5116802;28;20248;-67
2022/10/21 08:34:18;;;;;;;3.88;3.40;;;;;;;;;;5117782;28;20548;-68
2022/10/21 08:36:46;;;;;;;3.70;3.40;;;;;;;;;;5117512;28;20675;-66
2022/10/21 08:39:13;;;;;;;3.70;3.35;;;;;;;;;;5117441;28;20261;-67
2022/10/21 08:42:01;;;;;;;3.72;3.42;;;;;;;;;;5117324;28;20576;-67
2022/10/21 08:44:33;;;;;;;3.47;3.17;;;;;;;;;;5112186;28;20229;-66
2022/10/21 08:47:05;;;;;;;3.72;3.42;;;;;;;;;;5118018;28;20195;-67
2022/10/21 08:49:40;;;;;;;3.88;3.30;;;;;;;;;;5116620;28;20645;-67
2022/10/21 08:52:12;;;;;;;3.63;3.33;;;;;;;;;;5116563;28;20297;-67
2022/10/21 08:54:42;;;;;;;3.50;3.20;;;;;;;;;;5117745;28;20203;-66
2022/10/21 08:57:11;;;;;;;3.63;3.33;;;;;;;;;;5116817;28;20235;-67
2022/10/21 08:59:40;;;;;;;3.38;3.17;;;;;;;;;;5117158;28;20234;-66
2022/10/21 09:02:17;;;;;;;3.70;3.40;;;;;;;;;;5117134;28;20362;-67
2022/10/21 09:04:49;;;;;;;3.58;3.28;;;;;;;;;;5117467;28;20794;-67
2022/10/21 09:07:20;;;;;;;3.53;3.22;;;;;;;;;;5117132;28;20241;-66
2022/10/21 09:09:52;;;;;;;3.80;3.50;;;;;;;;;;5117257;28;20198;-67
2022/10/21 09:12:23;;;;;;;3.83;3.53;;;;;;;;;;5116195;28;20203;-66
2022/10/21 09:15:09;;;;;;;3.67;3.38;;;;;;;;;;5116929;28;20203;-67
2022/10/21 09:17:42;;;;;;;3.50;3.25;;;;;;;;;;5116491;28;20694;-68
2022/10/21 09:20:17;;;;;;;3.60;3.30;;;;;;;;;;5115987;28;20275;-66
2022/10/21 09:22:52;;;;;;;3.38;3.08;;;;;;;;;;5116441;28;20297;-67
2022/10/21 09:25:21;;;;;;;3.58;3.28;;;;;;;;;;5117106;28;20302;-66
2022/10/21 09:27:49;;;;;;;3.67;3.38;;;;;;;;;;5126394;27;20222;-66
2022/10/21 09:30:19;;;;;;;3.40;3.10;;;;;;;;;;5134950;27;20233;-66
2022/10/21 09:32:49;;;;;;;3.28;3.08;;;;;;;;;;5125042;27;20232;-66
2022/10/21 09:35:23;;;;;;;3.35;3.05;;;;;;;;;;5136444;27;20304;-66
2022/10/21 09:37:52;;;;;;;3.53;3.22;;;;;;;;;;5135800;27;20209;-67
2022/10/21 09:40:21;;;;;;;3.35;3.05;;;;;;;;;;5136878;27;20293;-67
2022/10/21 09:42:49;;;;;;;3.67;3.38;;;;;;;;;;5135890;27;20302;-66
2022/10/21 09:45:21;;;;;;;2.95;2.75;;;;;;;;;;5135664;27;20242;-66
2022/10/21 09:47:52;;;;;;;3.50;3.20;;;;;;;;;;5136894;27;20202;-66
2022/10/21 09:50:21;;;;;;;3.03;2.83;;;;;;;;;;5131766;27;20203;-65
2022/10/21 09:52:53;;;;;;;3.80;3.50;;;;;;;;;;5132960;27;20306;-66
2022/10/21 09:55:21;;;;;;;3.67;3.38;;;;;;;;;;5135889;27;20549;-66
2022/10/21 09:57:52;;;;;;;3.75;3.45;;;;;;;;;;5136074;27;20301;-66
2022/10/21 10:00:20;;;;;;;3.40;3.10;;;;;;;;;;5136077;27;20289;-65
2022/10/21 10:02:48;;;;;;;3.50;3.25;;;;;;;;;;5135644;27;20297;-66
2022/10/21 10:05:30;;;;;;;3.72;3.42;;;;;;;;;;5135746;27;20224;-67
2022/10/21 10:07:59;;;;;;;3.10;2.90;;;;;;;;;;5136101;27;20522;-66
2022/10/21 10:10:30;;;;;;;3.30;3.10;;;;;;;;;;5131794;27;20210;-66
2022/10/21 10:12:58;;;;;;;3.03;2.83;;;;;;;;;;5126249;27;20202;-66
2022/10/21 10:15:33;;;;;;;3.10;2.90;;;;;;;;;;5135752;27;20293;-65
2022/10/21 10:18:01;;;;;;;3.28;3.00;;;;;;;;;;5132978;27;20589;-66
2022/10/21 10:20:29;;;;;;;3.33;3.13;;;;;;;;;;5130197;27;20228;-66
2022/10/21 10:23:18;;;;;;;2.90;2.70;;;;;;;;;;5135213;27;20288;-66
2022/10/21 10:25:50;;;;;;;3.30;3.00;;;;;;;;;;5135894;27;20198;-66
2022/10/21 10:28:19;;;;;;;3.30;3.08;;;;;;;;;;5135760;27;20245;-66
2022/10/21 10:30:48;;;;;;;3.40;3.10;;;;;;;;;;5130796;27;20256;-67
2022/10/21 10:33:17;;;;;;;3.10;2.90;;;;;;;;;;5128592;27;20562;-66
2022/10/21 10:35:48;;;;;;;3.10;2.90;;;;;;;;;;5135496;27;20583;-66
2022/10/21 10:38:22;;;;;;;3.17;2.97;;;;;;;;;;5135352;27;20233;-66
2022/10/21 10:40:49;;;;;;;2.97;2.75;;;;;;;;;;5134817;28;20314;-66
2022/10/21 10:43:23;;;;;;;3.08;2.88;;;;;;;;;;5121139;28;20546;-66
2022/10/21 10:45:52;;;;;;;2.80;2.60;;;;;;;;;;5135961;28;20653;-67
2022/10/21 10:48:23;;;;;;;3.55;3.25;;;;;;;;;;5134855;28;20289;-66
2022/10/21 10:50:51;;;;;;;3.42;3.13;;;;;;;;;;5135841;27;20278;-67
2022/10/21 10:53:24;;;;;;;2.90;2.70;;;;;;;;;;5136054;28;20288;-66
2022/10/21 10:55:55;;;;;;;2.97;2.78;;;;;;;;;;5135841;28;20270;-66
2022/10/21 10:58:24;;;;;;;2.92;2.72;;;;;;;;;;5134952;28;20209;-66
2022/10/21 11:00:54;;;;;;;3.00;2.80;;;;;;;;;;5130916;28;20802;-66
2022/10/21 11:03:24;;;;;;;2.85;2.65;;;;;;;;;;5128735;27;20279;-66
2022/10/21 11:05:52;;;;;;;2.70;2.50;;;;;;;;;;5134691;27;20202;-66
2022/10/21 11:08:22;;;;;;;2.78;2.58;;;;;;;;;;5135845;27;20226;-66
2022/10/21 11:10:52;;;;;;;3.05;2.85;;;;;;;;;;5135514;27;20209;-66
2022/10/21 11:13:20;;;;;;;2.63;2.42;;;;;;;;;;5135743;28;20251;-66
2022/10/21 11:16:00;;;;;;;3.17;2.65;;;;;;;;;;5135756;27;20255;-66
2022/10/21 11:18:33;;;;;;;3.50;3.20;;;;;;;;;;5138860;27;20586;-66
2022/10/21 11:21:06;;;;;;;2.60;2.40;;;;;;;;;;5133543;27;20231;-66
2022/10/21 11:23:50;;;;;;;3.17;2.97;;;;;;;;;;5134586;27;20202;-66
2022/10/21 11:26:23;;;;;;;2.80;2.60;;;;;;;;;;5138987;27;20241;-67
2022/10/21 11:28:53;;;;;;;2.80;2.60;;;;;;;;;;5139136;27;20617;-67
2022/10/21 11:31:25;;;;;;;3.20;3.00;;;;;;;;;;5139102;27;20206;-67
2022/10/21 11:33:56;;;;;;;2.90;2.70;;;;;;;;;;5139185;27;20238;-67
2022/10/21 11:36:28;;;;;;;2.80;2.60;;;;;;;;;;5138130;27;20238;-67
2022/10/21 11:39:03;;;;;;;2.80;2.60;;;;;;;;;;5139281;27;20253;-66
2022/10/21 11:41:34;;;;;;;2.60;2.40;;;;;;;;;;5138141;27;20234;-68
2022/10/21 11:44:07;;;;;;;3.05;2.85;;;;;;;;;;5139224;27;20202;-67
2022/10/21 11:46:40;;;;;;;2.97;2.78;;;;;;;;;;5138697;27;20292;-66
2022/10/21 11:49:13;;;;;;;2.75;2.55;;;;;;;;;;5138460;27;20567;-66
2022/10/21 11:51:44;;;;;;;3.03;2.83;;;;;;;;;;5138037;27;20234;-66
2022/10/21 11:54:25;;;;;;;2.53;2.33;;;;;;;;;;5125837;27;20199;-67
2022/10/21 11:56:59;;;;;;;2.55;2.35;;;;;;;;;;5136631;27;20253;-66
2022/10/21 11:59:35;;;;;;;2.60;2.40;;;;;;;;;;5139160;27;20222;-66
2022/10/21 12:02:10;;;;;;;2.60;2.40;;;;;;;;;;5138199;27;20284;-67
2022/10/21 12:04:45;;;;;;;2.75;2.47;;;;;;;;;;5138158;27;20234;-67
2022/10/21 12:07:23;;;;;;;2.50;2.40;;;;;;;;;;5137905;27;20229;-66
2022/10/21 12:09:52;;;;;;;2.63;2.42;;;;;;;;;;5137632;27;20290;-68
2022/10/21 12:12:23;;;;;;;2.58;2.38;;;;;;;;;;5126771;27;20278;-66
2022/10/21 12:14:55;;;;;;;2.67;2.47;;;;;;;;;;5138092;27;20229;-67
2022/10/21 12:17:24;;;;;;;2.72;2.53;;;;;;;;;;5136878;27;20205;-67
2022/10/21 12:19:58;;;;;;;2.70;2.50;;;;;;;;;;5137068;27;20230;-67
2022/10/21 12:22:26;;;;;;;2.65;2.45;;;;;;;;;;5137210;27;20776;-67
2022/10/21 12:24:59;;;;;;;3.03;2.83;;;;;;;;;;5137285;27;20297;-67
2022/10/21 12:27:30;;;;;;;2.90;2.70;;;;;;;;;;5137383;27;20241;-67
2022/10/21 12:30:05;;;;;;;2.95;2.75;;;;;;;;;;5138087;27;20234;-66
2022/10/21 12:32:41;;;;;;;3.00;2.80;;;;;;;;;;5126865;27;20229;-67
2022/10/21 12:35:12;;;;;;;2.60;2.40;;;;;;;;;;5137779;27;20213;-69
2022/10/21 12:37:45;;;;;;;2.75;2.55;;;;;;;;;;5137782;27;20252;-67
2022/10/21 12:40:14;;;;;;;2.70;2.50;;;;;;;;;;5136460;27;20226;-67
2022/10/21 12:42:48;;;;;;;2.83;2.63;;;;;;;;;;5136792;27;20209;-66
2022/10/21 12:45:29;;;;;;;2.97;2.78;;;;;;;;;;5137314;27;20214;-67
2022/10/21 12:47:57;;;;;;;2.58;2.38;;;;;;;;;;5137179;27;20552;-67
2022/10/21 12:50:28;;;;;;;2.70;2.50;;;;;;;;;;5137786;27;20571;-67
2022/10/21 12:53:20;;;;;;;2.33;2.22;;;;;;;;;;5127434;27;20198;-66
2022/10/21 12:55:49;;;;;;;2.63;2.42;;;;;;;;;;5106495;27;20241;-66
2022/10/21 12:58:23;;;;;;;2.67;2.47;;;;;;;;;;5137895;27;20198;-66
2022/10/21 13:00:55;;;;;;;2.67;2.47;;;;;;;;;;5137187;27;20644;-66
2022/10/21 13:03:23;;;;;;;2.45;2.33;;;;;;;;;;5136643;27;20234;-66
2022/10/21 13:06:06;;;;;;;2.70;2.50;;;;;;;;;;5136971;27;20198;-66
2022/10/21 13:08:51;;;;;;;2.60;2.40;;;;;;;;;;5137389;27;20202;-66
2022/10/21 13:11:23;;;;;;;3.00;2.80;;;;;;;;;;5132123;27;20213;-66
2022/10/21 13:14:06;;;;;;;2.70;2.50;;;;;;;;;;5134372;27;20202;-66
2022/10/21 13:16:40;;;;;;;2.90;2.70;;;;;;;;;;5136638;27;20297;-66
2022/10/21 13:19:32;;;;;;;3.17;2.95;;;;;;;;;;5137049;27;20693;-67
2022/10/21 13:22:04;;;;;;;3.05;2.85;;;;;;;;;;5136217;27;20205;-66
2022/10/21 13:24:32;;;;;;;2.70;2.50;;;;;;;;;;5136107;27;20567;-66
2022/10/21 13:27:01;;;;;;;2.85;2.65;;;;;;;;;;5131175;27;20264;-66
2022/10/21 13:29:30;;;;;;;2.83;2.63;;;;;;;;;;5115514;28;20209;-66
2022/10/21 13:32:22;;;;;;;2.78;2.58;;;;;;;;;;5115365;28;20207;-66
2022/10/21 13:34:57;;;;;;;2.70;2.50;;;;;;;;;;5116173;28;20207;-67
2022/10/21 13:37:27;;;;;;;2.85;2.65;;;;;;;;;;5116850;28;20202;-66
2022/10/21 13:39:57;;;;;;;3.15;2.95;;;;;;;;;;5112191;28;20495;-66
2022/10/21 13:42:24;;;;;;;2.97;2.78;;;;;;;;;;5106875;28;20581;-66
2022/10/21 13:44:53;;;;;;;2.75;2.55;;;;;;;;;;5115999;28;20199;-65
2022/10/21 13:47:26;;;;;;;3.30;3.10;;;;;;;;;;5115037;28;20287;-66
2022/10/21 13:49:55;;;;;;;3.13;2.92;;;;;;;;;;5115064;28;20206;-66
2022/10/21 13:52:27;;;;;;;2.92;2.72;;;;;;;;;;5114678;28;20288;-66
2022/10/21 13:54:58;;;;;;;3.03;2.72;;;;;;;;;;5115322;28;20238;-66
2022/10/21 13:57:29;;;;;;;2.72;2.53;;;;;;;;;;5115651;28;20199;-66
2022/10/21 14:00:03;;;;;;;3.28;2.97;;;;;;;;;;5114588;28;20609;-66
2022/10/21 14:02:32;;;;;;;3.03;2.75;;;;;;;;;;5102739;28;20270;-66
2022/10/21 14:04:59;;;;;;;2.80;2.60;;;;;;;;;;5116054;28;20195;-67
2022/10/21 14:07:27;;;;;;;2.90;2.70;;;;;;;;;;5116653;28;20210;-65
2022/10/21 14:09:56;;;;;;;3.10;2.80;;;;;;;;;;5116153;28;20563;-67
2022/10/21 14:12:27;;;;;;;2.90;2.70;;;;;;;;;;5116060;28;20446;-66
2022/10/21 14:14:56;;;;;;;2.88;2.67;;;;;;;;;;5115767;28;20345;-66
2022/10/21 14:17:25;;;;;;;2.95;2.75;;;;;;;;;;5136330;27;20599;-66
2022/10/21 14:19:55;;;;;;;3.17;2.88;;;;;;;;;;5136021;27;20240;-66
2022/10/21 14:22:24;;;;;;;3.10;2.90;;;;;;;;;;5124990;27;20214;-66
2022/10/21 14:24:53;;;;;;;2.75;2.55;;;;;;;;;;5114964;28;20234;-66
2022/10/21 14:27:22;;;;;;;3.20;3.00;;;;;;;;;;5114816;27;20234;-66
2022/10/21 14:29:50;;;;;;;3.17;2.88;;;;;;;;;;5116114;28;20602;-66
2022/10/21 14:32:19;;;;;;;2.95;2.75;;;;;;;;;;5114692;28;20289;-67
2022/10/21 14:34:59;;;;;;;3.03;2.83;;;;;;;;;;5115975;28;20225;-66
2022/10/21 14:37:27;;;;;;;3.70;3.35;;;;;;;;;;5115109;28;20202;-67
2022/10/21 14:39:54;;;;;;;9.07;8.18;;;;;;;;;;5115837;28;20314;-66
2022/10/21 14:42:23;;;;;;;137.60;113.70;;;;;;;;;;5115449;28;20253;-67
2022/10/21 14:44:52;;;;;;;273.80;226.65;;;;;;;;;;5115319;28;20202;-67
2022/10/21 14:47:21;;;;;;;224.13;186.10;;;;;;;;;;5115587;28;20563;-67
2022/10/21 14:49:50;;;;;;;187.27;161.00;;;;;;;;;;5115897;28;20583;-66
2022/10/21 14:52:20;;;;;;;170.02;142.40;;;;;;;;;;5116664;28;20264;-66
2022/10/21 14:54:49;;;;;;;158.93;132.77;;;;;;;;;;5118954;28;20300;-66
2022/10/21 14:57:25;;;;;;;146.98;126.03;;;;;;;;;;5118817;28;20234;-67